Time;durP1;ratioP1;P1;durP2;ratioP2;P2;SDS_P1;SDS_P2;PMS_P1;PMS_P2;Temp;Humidity;BMP_temperature;BMP_pressure;BME280_temperature;BME280_humidity;BME280_pressure;Samples;Min_cycle;Max_cycle;Signal;HPM_P1;HPM_P2
2021/11/24 00:00:46;;;;;;;18.52;12.57;;;11.40;86.70;;;;;;4955844;29;20386;-76
2021/11/24 00:03:12;;;;;;;16.52;12.00;;;11.40;86.70;;;;;;4957088;28;20059;-76
2021/11/24 00:05:38;;;;;;;17.40;12.60;;;11.40;86.70;;;;;;4955696;29;20382;-75
2021/11/24 00:08:04;;;;;;;17.33;12.20;;;11.40;86.70;;;;;;4955672;28;20117;-76
2021/11/24 00:10:35;;;;;;;15.90;11.82;;;11.40;86.70;;;;;;4955608;29;20023;-75
2021/11/24 00:13:01;;;;;;;16.73;12.10;;;11.40;86.70;;;;;;4955712;29;20038;-76
2021/11/24 00:15:27;;;;;;;17.17;12.48;;;11.40;86.70;;;;;;4955448;29;20023;-76
2021/11/24 00:17:53;;;;;;;18.83;12.77;;;11.30;86.70;;;;;;4956717;28;20026;-76
2021/11/24 00:20:19;;;;;;;19.85;12.18;;;11.30;86.70;;;;;;4955480;29;20442;-76
2021/11/24 00:22:44;;;;;;;18.67;12.48;;;11.40;86.80;;;;;;4955492;29;20034;-76
2021/11/24 00:25:11;;;;;;;17.23;12.00;;;11.40;86.80;;;;;;4956519;28;20038;-76
2021/11/24 00:27:37;;;;;;;17.58;12.48;;;11.40;86.80;;;;;;4954437;29;20027;-76
2021/11/24 00:30:05;;;;;;;18.75;12.50;;;11.40;86.90;;;;;;4955328;28;20126;-76
2021/11/24 00:32:30;;;;;;;18.02;11.90;;;11.40;86.90;;;;;;4956490;28;20034;-76
2021/11/24 00:34:56;;;;;;;19.00;12.73;;;11.40;87.00;;;;;;4955077;29;20027;-76
2021/11/24 00:37:22;;;;;;;17.83;12.70;;;11.30;87.00;;;;;;4955222;29;20058;-76
2021/11/24 00:39:48;;;;;;;16.73;12.27;;;11.40;87.10;;;;;;4955158;28;20023;-75
2021/11/24 00:42:13;;;;;;;17.20;12.88;;;11.40;87.10;;;;;;4955265;29;20471;-75
2021/11/24 00:44:39;;;;;;;16.35;11.40;;;11.40;87.10;;;;;;4954923;29;20031;-76
2021/11/24 00:47:05;;;;;;;17.27;12.70;;;11.30;87.00;;;;;;4954996;29;20094;-75
2021/11/24 00:49:30;;;;;;;16.90;11.75;;;11.40;87.00;;;;;;4954836;28;20031;-75
2021/11/24 00:51:56;;;;;;;17.60;12.88;;;11.40;87.10;;;;;;4956296;28;20050;-75
2021/11/24 00:54:22;;;;;;;16.33;12.30;;;11.40;87.00;;;;;;4954743;29;20034;-75
2021/11/24 00:56:47;;;;;;;17.17;12.30;;;11.40;87.10;;;;;;4956094;28;20027;-76
2021/11/24 00:59:13;;;;;;;18.02;12.43;;;11.30;87.10;;;;;;4954820;28;20518;-76
2021/11/24 01:01:38;;;;;;;16.08;11.90;;;11.40;87.10;;;;;;4954891;29;20670;-75
2021/11/24 01:04:04;;;;;;;18.02;11.55;;;11.50;87.20;;;;;;4954589;29;20028;-74
2021/11/24 01:06:30;;;;;;;17.35;12.18;;;11.50;87.20;;;;;;4954682;29;20064;-76
2021/11/24 01:08:55;;;;;;;16.80;12.13;;;11.40;87.20;;;;;;4955855;28;20035;-76
2021/11/24 01:11:21;;;;;;;16.58;12.30;;;11.40;87.10;;;;;;4954661;29;20064;-77
2021/11/24 01:13:48;;;;;;;18.50;12.77;;;11.40;87.10;;;;;;4954749;29;20038;-76
2021/11/24 01:16:14;;;;;;;17.25;12.43;;;11.40;87.00;;;;;;4954340;29;20027;-77
2021/11/24 01:18:40;;;;;;;16.52;11.95;;;11.40;87.10;;;;;;4954528;28;20056;-76
2021/11/24 01:21:06;;;;;;;16.88;12.00;;;11.40;87.10;;;;;;4954603;29;20058;-77
2021/11/24 01:23:32;;;;;;;16.60;11.60;;;11.40;87.10;;;;;;4954406;29;20023;-76
2021/11/24 01:25:58;;;;;;;18.08;12.27;;;11.30;87.10;;;;;;4955334;28;20031;-76
2021/11/24 01:28:23;;;;;;;17.70;12.77;;;11.40;87.20;;;;;;4953879;28;20029;-75
2021/11/24 01:30:49;;;;;;;16.45;11.85;;;11.30;87.20;;;;;;4954259;29;20031;-75
2021/11/24 01:33:15;;;;;;;17.20;12.27;;;11.40;87.30;;;;;;4954264;29;20023;-77
2021/11/24 01:35:41;;;;;;;16.48;12.00;;;11.40;87.30;;;;;;4954030;29;20077;-77
2021/11/24 01:38:07;;;;;;;16.20;11.80;;;11.40;87.30;;;;;;4953913;28;20027;-76
2021/11/24 01:40:32;;;;;;;15.82;12.15;;;11.50;87.40;;;;;;4954137;29;20035;-76
2021/11/24 01:42:58;;;;;;;16.60;12.75;;;11.40;87.30;;;;;;4953997;29;20034;-77
2021/11/24 01:45:24;;;;;;;17.60;12.07;;;11.40;87.30;;;;;;4954997;28;20051;-77
2021/11/24 01:47:51;;;;;;;15.27;11.00;;;11.40;87.30;;;;;;4954030;29;20023;-77
2021/11/24 01:50:17;;;;;;;15.52;11.75;;;11.30;87.20;;;;;;4953904;28;20027;-77
2021/11/24 01:52:43;;;;;;;16.27;12.02;;;11.40;87.30;;;;;;4953778;29;20434;-77
2021/11/24 01:55:10;;;;;;;16.50;11.48;;;11.30;87.20;;;;;;4953919;29;20027;-76
2021/11/24 01:57:40;;;;;;;14.35;11.00;;;11.40;87.20;;;;;;4953661;29;20031;-76
2021/11/24 02:00:07;;;;;;;16.60;12.52;;;11.50;87.30;;;;;;4953677;28;20027;-76
2021/11/24 02:02:33;;;;;;;20.38;12.32;;;11.40;87.30;;;;;;4953724;29;20126;-76
2021/11/24 02:04:58;;;;;;;15.93;11.68;;;11.40;87.20;;;;;;4954683;28;20497;-76
2021/11/24 02:07:24;;;;;;;17.92;12.70;;;11.40;87.20;;;;;;4953775;29;20035;-76
2021/11/24 02:09:49;;;;;;;15.48;11.70;;;11.30;87.10;;;;;;4953505;28;20027;-76
2021/11/24 02:12:16;;;;;;;16.40;12.23;;;11.40;86.90;;;;;;4953572;29;20093;-76
2021/11/24 02:14:43;;;;;;;15.15;11.27;;;11.40;86.80;;;;;;4953304;29;20051;-76
2021/11/24 02:17:10;;;;;;;17.73;11.75;;;11.30;86.50;;;;;;4954905;28;20030;-79
2021/11/24 02:19:36;;;;;;;16.88;11.98;;;11.50;86.50;;;;;;4953435;28;20019;-76
2021/11/24 02:22:03;;;;;;;16.35;12.13;;;11.50;86.40;;;;;;4953370;29;20030;-76
2021/11/24 02:24:31;;;;;;;15.15;11.43;;;11.50;86.40;;;;;;4954327;28;20432;-76
2021/11/24 02:26:58;;;;;;;16.80;12.50;;;11.40;86.40;;;;;;4953349;29;20023;-76
2021/11/24 02:29:24;;;;;;;17.55;12.75;;;11.50;86.30;;;;;;4952899;28;20027;-77
2021/11/24 02:31:53;;;;;;;15.40;11.80;;;11.50;86.30;;;;;;4953222;29;20037;-76
2021/11/24 02:34:19;;;;;;;16.38;12.00;;;11.50;86.30;;;;;;4953001;29;20123;-76
2021/11/24 02:36:45;;;;;;;16.90;12.45;;;11.50;86.30;;;;;;4953273;29;20027;-76
2021/11/24 02:39:12;;;;;;;15.48;11.73;;;11.40;86.20;;;;;;4954432;28;20027;-76
2021/11/24 02:41:38;;;;;;;15.07;11.27;;;11.50;86.20;;;;;;4954571;28;20106;-76
2021/11/24 02:44:20;;;;;;;16.30;11.70;;;11.60;86.30;;;;;;4953117;29;20143;-73
2021/11/24 02:46:47;;;;;;;16.92;12.73;;;11.50;86.20;;;;;;4954429;28;20400;-76
2021/11/24 02:49:13;;;;;;;15.63;11.57;;;11.50;86.20;;;;;;4953595;28;20027;-75
2021/11/24 02:51:40;;;;;;;15.85;11.35;;;11.50;86.20;;;;;;4958290;28;20035;-76
2021/11/24 02:54:05;;;;;;;15.90;11.43;;;11.50;86.20;;;;;;4957024;29;20023;-75
2021/11/24 02:56:31;;;;;;;15.68;11.27;;;11.50;86.20;;;;;;4957008;29;20035;-76
2021/11/24 02:58:57;;;;;;;16.45;12.23;;;11.50;86.30;;;;;;4957089;28;20098;-76
2021/11/24 03:01:23;;;;;;;17.63;12.52;;;11.50;86.20;;;;;;4958211;28;20059;-76
2021/11/24 03:03:49;;;;;;;16.48;11.90;;;11.50;86.40;;;;;;4957009;29;20042;-76
2021/11/24 03:06:14;;;;;;;15.85;11.85;;;11.50;86.60;;;;;;4956697;29;20030;-76
2021/11/24 03:08:40;;;;;;;18.05;13.07;;;11.50;86.80;;;;;;4956767;28;20031;-77
2021/11/24 03:11:06;;;;;;;16.75;12.30;;;11.40;86.80;;;;;;4956890;29;20108;-76
2021/11/24 03:13:32;;;;;;;18.25;12.60;;;11.40;87.00;;;;;;4957004;29;20023;-76
2021/11/24 03:15:57;;;;;;;19.23;12.18;;;11.40;87.20;;;;;;4957791;28;20059;-76
2021/11/24 03:18:23;;;;;;;18.50;13.70;;;11.40;87.30;;;;;;4956757;28;20024;-76
2021/11/24 03:20:49;;;;;;;19.48;14.05;;;11.40;87.50;;;;;;4956656;29;20035;-76
2021/11/24 03:23:14;;;;;;;18.52;12.95;;;11.40;87.60;;;;;;4956629;29;20030;-76
2021/11/24 03:25:40;;;;;;;16.67;12.32;;;11.30;87.60;;;;;;4956418;29;20031;-75
2021/11/24 03:28:06;;;;;;;18.60;13.32;;;11.30;87.60;;;;;;4957529;28;20038;-76
2021/11/24 03:30:33;;;;;;;18.05;13.18;;;11.30;87.70;;;;;;4957132;28;20544;-75
2021/11/24 03:33:02;;;;;;;19.92;13.63;;;11.40;87.70;;;;;;4957555;28;20397;-76
2021/11/24 03:35:29;;;;;;;17.52;13.05;;;11.40;87.70;;;;;;4957266;28;20429;-77
2021/11/24 03:37:56;;;;;;;19.48;13.57;;;11.30;87.80;;;;;;4957609;28;20055;-75
2021/11/24 03:40:25;;;;;;;18.83;13.57;;;11.30;87.80;;;;;;4953091;29;20066;-75
2021/11/24 03:42:52;;;;;;;17.80;12.57;;;11.40;87.90;;;;;;4936691;29;20028;-75
2021/11/24 03:45:21;;;;;;;18.45;13.73;;;11.30;87.90;;;;;;4938109;29;20106;-75
2021/11/24 03:47:48;;;;;;;19.30;13.25;;;11.30;87.90;;;;;;4937013;29;20024;-76
2021/11/24 03:50:14;;;;;;;17.95;13.10;;;11.30;87.90;;;;;;4936661;29;20028;-76
2021/11/24 03:52:40;;;;;;;16.98;12.20;;;11.30;87.80;;;;;;4938126;29;20038;-75
2021/11/24 03:55:08;;;;;;;18.60;13.45;;;11.30;87.80;;;;;;4936744;29;20394;-76
2021/11/24 03:57:34;;;;;;;18.45;13.25;;;11.30;87.80;;;;;;4936769;29;20023;-76
2021/11/24 03:59:59;;;;;;;19.33;13.57;;;11.30;87.80;;;;;;4936641;29;20032;-76
2021/11/24 04:02:25;;;;;;;18.45;13.52;;;11.30;87.80;;;;;;4936846;29;20027;-75
2021/11/24 04:04:52;;;;;;;18.10;13.20;;;11.30;87.80;;;;;;4936527;29;20032;-75
2021/11/24 04:07:18;;;;;;;20.23;13.63;;;11.30;87.80;;;;;;4939003;29;20114;-75
2021/11/24 04:09:43;;;;;;;18.85;13.48;;;11.30;87.70;;;;;;4952435;28;20055;-76
2021/11/24 04:12:09;;;;;;;19.58;14.05;;;11.30;87.70;;;;;;4952573;29;20031;-76
2021/11/24 04:14:35;;;;;;;17.20;12.60;;;11.30;87.70;;;;;;4937441;29;20027;-75
2021/11/24 04:17:00;;;;;;;18.63;13.23;;;11.30;87.60;;;;;;4937775;29;20062;-76
2021/11/24 04:19:26;;;;;;;17.38;12.75;;;11.30;87.70;;;;;;4952284;28;20020;-75
2021/11/24 04:21:52;;;;;;;18.30;13.25;;;11.30;87.70;;;;;;4937558;29;20091;-77
2021/11/24 04:24:18;;;;;;;18.98;13.27;;;11.30;87.70;;;;;;4952144;29;20119;-76
2021/11/24 04:26:44;;;;;;;18.77;13.65;;;11.20;87.60;;;;;;4952335;29;20501;-76
2021/11/24 04:29:10;;;;;;;17.13;12.93;;;11.30;87.80;;;;;;4970465;23;20504;-79
2021/11/24 04:31:35;;;;;;;17.92;13.18;;;11.40;87.80;;;;;;4976804;28;20070;-79
2021/11/24 04:34:01;;;;;;;19.08;13.20;;;11.40;87.80;;;;;;4976611;28;20130;-79
2021/11/24 04:36:27;;;;;;;18.52;13.02;;;11.30;87.80;;;;;;4978075;28;20038;-81
2021/11/24 04:38:52;;;;;;;17.88;12.60;;;11.30;87.80;;;;;;4976989;28;20031;-79
2021/11/24 04:41:18;;;;;;;17.98;12.88;;;11.30;87.80;;;;;;4976637;28;20037;-79
2021/11/24 04:43:45;;;;;;;17.98;12.77;;;11.30;87.90;;;;;;4976742;28;20034;-79
2021/11/24 04:46:13;;;;;;;18.17;13.10;;;11.40;87.90;;;;;;4977817;28;20071;-82
2021/11/24 04:48:39;;;;;;;18.55;12.98;;;11.40;87.80;;;;;;4976627;28;20570;-79
2021/11/24 04:51:06;;;;;;;17.60;12.77;;;11.30;87.70;;;;;;4976425;28;20026;-79
2021/11/24 04:53:31;;;;;;;17.83;13.27;;;11.30;87.70;;;;;;4976350;28;20058;-79
2021/11/24 04:55:57;;;;;;;18.60;12.95;;;11.30;87.80;;;;;;4976298;28;20061;-79
2021/11/24 04:58:23;;;;;;;19.83;13.90;;;11.30;87.80;;;;;;4976937;28;20484;-79
2021/11/24 05:00:49;;;;;;;16.58;12.27;;;11.30;87.80;;;;;;4976190;28;20038;-80
2021/11/24 05:03:14;;;;;;;17.50;13.25;;;11.40;87.80;;;;;;4976224;28;20098;-81
2021/11/24 05:05:40;;;;;;;18.80;13.60;;;11.40;87.80;;;;;;4976376;28;20053;-79
2021/11/24 05:08:07;;;;;;;18.58;14.10;;;11.30;87.80;;;;;;4976430;28;20073;-80
2021/11/24 05:10:32;;;;;;;16.80;12.82;;;11.30;87.70;;;;;;4976184;28;20085;-79
2021/11/24 05:12:58;;;;;;;17.45;12.80;;;11.30;87.70;;;;;;4977027;28;20508;-79
2021/11/24 05:15:32;;;;;;;17.65;13.30;;;11.30;87.70;;;;;;4976366;28;20030;-81
2021/11/24 05:18:04;;;;;;;16.40;12.57;;;11.40;87.80;;;;;;4975985;28;20053;-79
2021/11/24 05:20:31;;;;;;;17.48;12.73;;;11.40;87.80;;;;;;4977273;28;20054;-80
2021/11/24 05:23:00;;;;;;;17.65;12.25;;;11.30;87.70;;;;;;4975856;28;20129;-80
2021/11/24 05:25:27;;;;;;;18.85;12.82;;;11.40;87.80;;;;;;4975337;28;20033;-79
2021/11/24 05:27:53;;;;;;;18.70;12.68;;;11.30;87.80;;;;;;4975786;28;20501;-80
2021/11/24 05:30:19;;;;;;;16.58;12.50;;;11.30;87.80;;;;;;4976386;28;20047;-81
2021/11/24 05:32:44;;;;;;;19.27;14.05;;;11.30;87.90;;;;;;4975679;28;20397;-79
2021/11/24 05:35:10;;;;;;;17.42;12.93;;;11.30;87.90;;;;;;4975623;28;20481;-80
2021/11/24 05:37:36;;;;;;;17.77;12.73;;;11.30;87.80;;;;;;4976320;28;20034;-79
2021/11/24 05:40:03;;;;;;;17.70;13.20;;;11.40;87.90;;;;;;4975885;28;20109;-79
2021/11/24 05:42:28;;;;;;;16.80;12.88;;;11.30;87.80;;;;;;4971776;28;20501;-80
2021/11/24 05:45:12;;;;;;;19.45;13.63;;;11.30;87.80;;;;;;4989183;28;20026;-80
2021/11/24 05:47:54;;;;;;;18.50;13.55;;;11.40;87.90;;;;;;4975923;28;20489;-80
2021/11/24 05:50:21;;;;;;;17.85;12.85;;;11.20;87.90;;;;;;4976595;28;20106;-82
2021/11/24 05:52:48;;;;;;;19.80;13.63;;;11.30;87.90;;;;;;4974636;28;20026;-83
2021/11/24 05:55:14;;;;;;;18.38;13.25;;;11.30;87.90;;;;;;4972477;28;20087;-83
2021/11/24 05:57:39;;;;;;;18.85;13.40;;;11.20;87.80;;;;;;4967405;28;20051;-84
2021/11/24 06:00:06;;;;;;;18.42;13.23;;;11.30;87.90;;;;;;4958930;28;20556;-82
2021/11/24 06:02:32;;;;;;;17.63;12.85;;;11.30;87.90;;;;;;4975520;28;20511;-80
2021/11/24 06:04:58;;;;;;;19.05;13.85;;;11.30;87.90;;;;;;4973373;28;20027;-82
2021/11/24 06:07:24;;;;;;;17.27;12.57;;;11.30;87.90;;;;;;4974944;28;20120;-80
2021/11/24 06:09:49;;;;;;;19.30;12.90;;;11.30;87.90;;;;;;4973112;28;20034;-83
2021/11/24 06:12:15;;;;;;;19.23;13.25;;;11.30;88.00;;;;;;4968814;28;20024;-80
2021/11/24 06:14:41;;;;;;;18.13;12.93;;;11.20;87.90;;;;;;4953572;29;20058;-80
2021/11/24 06:17:07;;;;;;;19.15;13.30;;;11.40;88.00;;;;;;4956960;28;20038;-82
2021/11/24 06:19:33;;;;;;;18.05;12.45;;;11.30;87.90;;;;;;4972358;28;20369;-82
2021/11/24 06:21:58;;;;;;;19.27;12.98;;;11.30;88.00;;;;;;4971564;28;20094;-84
2021/11/24 06:24:24;;;;;;;16.88;12.40;;;11.20;87.90;;;;;;4972811;28;20119;-82
2021/11/24 06:26:50;;;;;;;18.67;12.82;;;11.30;87.90;;;;;;4967141;28;20026;-82
2021/11/24 06:29:15;;;;;;;17.15;12.05;;;11.30;88.00;;;;;;4964632;28;20082;-82
2021/11/24 06:31:41;;;;;;;18.33;13.18;;;11.30;87.90;;;;;;4967951;28;20114;-83
2021/11/24 06:34:06;;;;;;;17.10;12.52;;;11.30;87.90;;;;;;4960896;28;20037;-81
2021/11/24 06:36:32;;;;;;;18.63;12.80;;;11.30;87.90;;;;;;4953528;29;20027;-83
2021/11/24 06:38:58;;;;;;;17.65;12.90;;;11.30;88.00;;;;;;4966388;28;20023;-83
2021/11/24 06:41:23;;;;;;;19.45;12.98;;;11.20;87.80;;;;;;4967877;28;20034;-83
2021/11/24 06:43:49;;;;;;;16.42;12.05;;;11.20;87.30;;;;;;4963110;28;20844;-82
2021/11/24 06:46:14;;;;;;;19.33;13.20;;;11.40;87.40;;;;;;4960682;28;20039;-83
2021/11/24 06:48:40;;;;;;;15.52;11.90;;;11.30;87.40;;;;;;4964293;28;20027;-82
2021/11/24 06:51:06;;;;;;;16.38;11.90;;;11.40;87.40;;;;;;4965474;28;20077;-80
2021/11/24 06:53:31;;;;;;;18.17;12.45;;;11.40;87.30;;;;;;4964802;28;20540;-82
2021/11/24 06:55:57;;;;;;;18.45;12.23;;;11.40;87.10;;;;;;4962144;28;20031;-83
2021/11/24 06:58:22;;;;;;;18.73;13.07;;;11.50;87.10;;;;;;4961424;28;20015;-82
2021/11/24 07:00:48;;;;;;;17.60;12.73;;;11.40;87.10;;;;;;4964438;28;20062;-82
2021/11/24 07:03:14;;;;;;;16.95;12.68;;;11.50;87.10;;;;;;4964935;28;20023;-82
2021/11/24 07:05:39;;;;;;;17.90;12.32;;;11.50;87.10;;;;;;4966437;28;20484;-82
2021/11/24 07:08:06;;;;;;;18.38;13.30;;;11.50;86.90;;;;;;4980483;28;20388;-82
2021/11/24 07:10:33;;;;;;;18.58;12.20;;;11.50;86.90;;;;;;4991065;28;20194;-81
2021/11/24 07:12:59;;;;;;;18.67;13.57;;;11.50;86.80;;;;;;4991753;28;20528;-80
2021/11/24 07:15:26;;;;;;;17.05;12.82;;;11.50;86.80;;;;;;4986708;28;20033;-82
2021/11/24 07:17:51;;;;;;;18.08;12.38;;;11.50;86.80;;;;;;4970803;28;20387;-82
2021/11/24 07:20:17;;;;;;;18.30;13.30;;;11.50;86.80;;;;;;4970399;28;20058;-79
2021/11/24 07:22:43;;;;;;;18.02;12.80;;;11.40;86.90;;;;;;4962993;28;20061;-82
2021/11/24 07:25:10;;;;;;;18.65;13.43;;;11.50;87.00;;;;;;4961224;28;20057;-79
2021/11/24 07:27:36;;;;;;;19.00;13.25;;;11.40;87.10;;;;;;4956446;28;20097;-83
2021/11/24 07:30:04;;;;;;;19.20;13.23;;;11.40;87.30;;;;;;4966204;28;20042;-82
2021/11/24 07:32:29;;;;;;;19.48;13.75;;;11.30;87.40;;;;;;4952700;29;20027;-84
2021/11/24 07:34:55;;;;;;;19.63;13.75;;;11.30;87.60;;;;;;4972386;28;20062;-81
2021/11/24 07:37:20;;;;;;;19.55;13.27;;;11.40;87.70;;;;;;4974368;28;20058;-84
2021/11/24 07:39:46;;;;;;;25.45;14.93;;;11.40;87.80;;;;;;4975794;28;20098;-81
2021/11/24 07:42:12;;;;;;;20.83;13.98;;;11.30;87.80;;;;;;4974446;28;20026;-82
2021/11/24 07:44:38;;;;;;;20.70;14.27;;;11.30;87.90;;;;;;4973408;28;20033;-82
2021/11/24 07:47:04;;;;;;;19.30;13.48;;;11.20;87.90;;;;;;4974119;28;20069;-81
2021/11/24 07:49:29;;;;;;;22.13;14.18;;;11.30;88.00;;;;;;4974309;28;20059;-82
2021/11/24 07:51:55;;;;;;;19.10;14.13;;;11.30;88.00;;;;;;4967422;28;20034;-82
2021/11/24 07:54:21;;;;;;;20.73;15.02;;;11.10;88.00;;;;;;4961766;28;20584;-82
2021/11/24 07:56:46;;;;;;;22.90;14.45;;;11.30;88.00;;;;;;4963867;28;20024;-81
2021/11/24 07:59:12;;;;;;;20.95;14.73;;;11.30;88.10;;;;;;4965166;28;20027;-82
2021/11/24 08:01:37;;;;;;;20.80;14.40;;;11.30;88.20;;;;;;4964360;28;20074;-81
2021/11/24 08:04:03;;;;;;;19.52;14.10;;;11.30;88.20;;;;;;4965057;28;20038;-82
2021/11/24 08:06:29;;;;;;;19.17;14.13;;;11.30;88.20;;;;;;4959433;28;20551;-81
2021/11/24 08:08:54;;;;;;;20.63;14.18;;;11.20;88.10;;;;;;4972389;28;20122;-80
2021/11/24 08:11:20;;;;;;;22.02;15.13;;;11.20;88.10;;;;;;4972327;28;20583;-81
2021/11/24 08:13:47;;;;;;;19.65;14.38;;;11.20;88.10;;;;;;4973652;28;20027;-81
2021/11/24 08:16:13;;;;;;;20.20;14.77;;;11.20;88.20;;;;;;4966632;28;20026;-83
2021/11/24 08:18:39;;;;;;;20.25;14.60;;;11.10;88.10;;;;;;4970228;28;20393;-82
2021/11/24 08:21:05;;;;;;;19.75;14.10;;;11.10;88.10;;;;;;4969159;28;20027;-81
2021/11/24 08:23:31;;;;;;;19.65;14.50;;;11.30;88.20;;;;;;4964433;28;20481;-81
2021/11/24 08:25:58;;;;;;;20.10;14.45;;;11.30;88.20;;;;;;4963093;28;20031;-82
2021/11/24 08:28:24;;;;;;;18.67;13.60;;;11.20;88.10;;;;;;4973313;28;20370;-82
2021/11/24 08:30:49;;;;;;;20.42;13.45;;;11.30;88.10;;;;;;4970096;28;20027;-83
2021/11/24 08:33:15;;;;;;;19.35;13.95;;;11.20;88.10;;;;;;4964029;28;20100;-83
2021/11/24 08:35:40;;;;;;;20.65;14.18;;;11.30;88.10;;;;;;4972441;28;20528;-82
2021/11/24 08:38:06;;;;;;;20.77;14.07;;;11.30;88.10;;;;;;4961303;28;20023;-81
2021/11/24 08:40:32;;;;;;;20.02;14.20;;;11.30;88.10;;;;;;4966362;28;20122;-83
2021/11/24 08:42:58;;;;;;;20.23;14.43;;;11.30;88.10;;;;;;4971051;28;20038;-81
2021/11/24 08:45:24;;;;;;;18.20;13.23;;;11.30;88.10;;;;;;4980356;28;20194;-84
2021/11/24 08:47:50;;;;;;;18.33;13.25;;;11.40;88.20;;;;;;4972835;28;20027;-82
2021/11/24 08:50:17;;;;;;;20.02;13.60;;;11.30;88.20;;;;;;4971859;28;20027;-83
2021/11/24 08:52:43;;;;;;;19.38;13.50;;;11.20;88.10;;;;;;4973452;28;20113;-82
2021/11/24 08:55:10;;;;;;;20.42;13.80;;;11.30;88.20;;;;;;4970192;28;20030;-81
2021/11/24 08:57:37;;;;;;;18.20;12.93;;;11.30;88.20;;;;;;4966766;28;20019;-81
2021/11/24 09:00:12;;;;;;;20.38;13.80;;;11.30;88.20;;;;;;4966366;28;20019;-79
2021/11/24 09:02:39;;;;;;;18.33;13.60;;;11.30;88.20;;;;;;4966196;28;20061;-80
2021/11/24 09:05:05;;;;;;;17.98;12.82;;;11.40;88.70;;;;;;4967385;28;20046;-82
2021/11/24 09:07:31;;;;;;;18.00;13.05;;;11.30;88.10;;;;;;4955455;29;20028;-82
2021/11/24 09:12:32;;;;;;;17.73;13.38;;;11.30;88.00;;;;;;5124432;23;20522;-75
2021/11/24 09:14:58;;;;;;;19.15;13.65;;;11.40;88.00;;;;;;4967407;28;20392;-77
2021/11/24 09:17:24;;;;;;;19.30;13.18;;;11.40;87.90;;;;;;4968262;28;20094;-77
2021/11/24 09:19:50;;;;;;;18.73;12.63;;;11.40;87.90;;;;;;4969877;28;20023;-77
2021/11/24 09:22:17;;;;;;;21.90;13.88;;;11.40;87.80;;;;;;4966923;28;20093;-78
2021/11/24 09:24:43;;;;;;;19.27;13.57;;;11.40;87.50;;;;;;4968501;28;20507;-77
2021/11/24 09:27:17;;;;;;;20.25;12.25;;;11.40;87.50;;;;;;4970080;28;20058;-78
2021/11/24 09:29:43;;;;;;;18.33;11.68;;;11.40;87.60;;;;;;4974179;28;20030;-79
2021/11/24 09:32:10;;;;;;;19.50;12.50;;;11.30;87.60;;;;;;4974020;28;20022;-77
2021/11/24 09:34:36;;;;;;;20.33;12.07;;;11.40;87.80;;;;;;4973168;28;20029;-77
2021/11/24 09:37:01;;;;;;;18.50;12.02;;;11.40;87.80;;;;;;4972937;28;20019;-77
2021/11/24 09:39:27;;;;;;;18.90;11.93;;;11.40;87.80;;;;;;4974298;28;20019;-77
2021/11/24 09:41:56;;;;;;;19.02;12.00;;;11.40;87.90;;;;;;4973822;28;20488;-77
2021/11/24 09:44:22;;;;;;;18.48;12.07;;;11.40;88.40;;;;;;4974211;28;20050;-77
2021/11/24 09:46:50;;;;;;;19.48;12.52;;;11.40;87.90;;;;;;4972766;28;20031;-77
2021/11/24 09:49:17;;;;;;;19.38;12.23;;;11.40;87.90;;;;;;4972908;28;20026;-77
2021/11/24 09:51:44;;;;;;;19.83;12.73;;;11.30;87.90;;;;;;4973612;28;20106;-77
2021/11/24 09:54:12;;;;;;;17.30;11.40;;;11.40;88.10;;;;;;4972771;28;20074;-77
2021/11/24 09:56:40;;;;;;;17.88;12.10;;;11.30;88.00;;;;;;4972974;28;20484;-78
2021/11/24 09:59:09;;;;;;;17.30;11.65;;;11.40;88.10;;;;;;4972644;28;20026;-79
2021/11/24 10:01:38;;;;;;;17.85;11.80;;;11.40;88.00;;;;;;4972452;28;20097;-77
2021/11/24 10:04:07;;;;;;;18.27;11.98;;;11.40;88.00;;;;;;4972702;28;20037;-79
2021/11/24 10:06:34;;;;;;;17.98;11.80;;;11.30;87.90;;;;;;4972579;28;20026;-77
2021/11/24 10:09:02;;;;;;;16.98;11.32;;;11.40;87.90;;;;;;4972507;28;20415;-77
2021/11/24 10:11:28;;;;;;;17.02;11.73;;;11.40;87.80;;;;;;4971739;28;20027;-77
2021/11/24 10:13:54;;;;;;;17.83;11.57;;;11.40;87.90;;;;;;4973598;28;20114;-77
2021/11/24 10:16:25;;;;;;;16.70;11.30;;;11.30;87.90;;;;;;4972459;28;20571;-77
2021/11/24 10:19:13;;;;;;;16.88;11.40;;;11.40;87.90;;;;;;4972481;28;20073;-78
2021/11/24 10:22:02;;;;;;;16.42;11.10;;;11.40;87.90;;;;;;4972096;28;20035;-79
2021/11/24 10:24:36;;;;;;;16.52;10.40;;;11.40;87.90;;;;;;4972226;28;20029;-77
2021/11/24 10:27:07;;;;;;;16.38;11.25;;;11.40;87.90;;;;;;4972339;28;20037;-77
2021/11/24 10:29:32;;;;;;;15.40;10.55;;;11.40;87.90;;;;;;4973445;28;20109;-77
2021/11/24 10:32:03;;;;;;;16.45;10.57;;;11.40;87.90;;;;;;4973042;28;20110;-76
2021/11/24 10:34:42;;;;;;;15.25;10.65;;;11.40;87.90;;;;;;4973531;28;20058;-76
2021/11/24 10:37:12;;;;;;;14.73;10.52;;;11.40;87.90;;;;;;4972011;28;20131;-77
2021/11/24 10:39:47;;;;;;;15.00;10.32;;;11.40;87.80;;;;;;4972184;28;20491;-76
2021/11/24 10:42:23;;;;;;;16.38;10.88;;;11.40;87.80;;;;;;4971949;28;20023;-76
2021/11/24 10:44:54;;;;;;;16.55;10.95;;;11.40;87.80;;;;;;4973389;28;20114;-77
2021/11/24 10:47:21;;;;;;;17.33;10.93;;;11.40;87.90;;;;;;4972113;28;20049;-77
2021/11/24 10:49:54;;;;;;;16.42;11.13;;;11.40;87.90;;;;;;4972272;28;20496;-77
2021/11/24 10:52:25;;;;;;;15.07;9.45;;;11.40;87.70;;;;;;4973000;28;20572;-79
2021/11/24 10:55:06;;;;;;;16.08;10.55;;;11.40;87.60;;;;;;4971872;28;20019;-79
2021/11/24 10:57:34;;;;;;;16.83;11.25;;;11.40;87.50;;;;;;4972151;28;20034;-78
2021/11/24 11:00:22;;;;;;;16.80;10.90;;;11.40;87.50;;;;;;4973102;28;20075;-78
2021/11/24 11:02:49;;;;;;;16.58;10.52;;;11.50;87.90;;;;;;4971771;28;20030;-79
2021/11/24 11:05:23;;;;;;;16.17;10.48;;;11.50;87.40;;;;;;4972080;28;20380;-77
2021/11/24 11:07:49;;;;;;;17.13;10.77;;;11.50;87.30;;;;;;4971835;28;20074;-78
2021/11/24 11:10:20;;;;;;;16.75;11.02;;;11.50;87.30;;;;;;4971894;28;20435;-77
2021/11/24 11:12:57;;;;;;;15.88;10.40;;;11.50;87.30;;;;;;4975321;28;20118;-77
2021/11/24 11:15:37;;;;;;;17.15;10.85;;;11.50;87.20;;;;;;4975595;28;20042;-78
2021/11/24 11:18:16;;;;;;;17.08;10.75;;;11.50;87.20;;;;;;4975725;28;20047;-77
2021/11/24 11:20:57;;;;;;;15.88;10.48;;;11.50;87.10;;;;;;4976540;28;20424;-78
2021/11/24 11:23:27;;;;;;;15.77;9.93;;;11.50;87.70;;;;;;4977273;28;20115;-78
2021/11/24 11:25:58;;;;;;;16.42;10.45;;;11.50;87.20;;;;;;4975549;28;20054;-79
2021/11/24 11:28:27;;;;;;;17.90;11.35;;;11.50;87.20;;;;;;4976677;28;20031;-78
2021/11/24 11:30:56;;;;;;;17.98;10.73;;;11.50;87.30;;;;;;4976274;28;20109;-78
2021/11/24 11:33:31;;;;;;;15.63;10.02;;;11.50;87.50;;;;;;4975321;28;20027;-78
2021/11/24 11:36:00;;;;;;;17.27;11.32;;;11.40;87.50;;;;;;4973979;28;20480;-76
2021/11/24 11:38:26;;;;;;;15.95;10.57;;;11.40;87.60;;;;;;4975121;28;20026;-78
2021/11/24 11:40:53;;;;;;;17.02;11.00;;;11.40;87.80;;;;;;4976032;28;20113;-77
2021/11/24 11:43:24;;;;;;;17.15;10.52;;;11.30;87.90;;;;;;4975133;28;20037;-79
2021/11/24 11:45:50;;;;;;;16.92;10.68;;;11.40;88.00;;;;;;4976321;28;20089;-77
2021/11/24 11:48:32;;;;;;;17.27;10.43;;;11.30;88.10;;;;;;4976191;28;20058;-78
2021/11/24 11:50:59;;;;;;;17.38;11.25;;;11.30;88.10;;;;;;4975874;28;20557;-77
2021/11/24 11:53:34;;;;;;;17.48;10.93;;;11.40;88.20;;;;;;4975079;28;20029;-78
2021/11/24 11:56:07;;;;;;;16.95;10.80;;;11.30;88.70;;;;;;4974857;28;20093;-78
2021/11/24 11:58:34;;;;;;;16.17;10.35;;;11.30;88.30;;;;;;4976037;28;20026;-78
2021/11/24 12:01:12;;;;;;;16.52;10.52;;;11.30;88.30;;;;;;4975729;28;20388;-78
2021/11/24 12:04:03;;;;;;;17.95;10.65;;;11.30;88.30;;;;;;4975967;28;20523;-77
2021/11/24 12:06:41;;;;;;;16.90;10.75;;;11.30;88.30;;;;;;4974907;28;20046;-78
2021/11/24 12:09:11;;;;;;;18.90;11.35;;;11.30;88.80;;;;;;4974698;28;20377;-78
2021/11/24 12:11:59;;;;;;;19.10;11.48;;;11.30;88.20;;;;;;4974001;28;20117;-78
2021/11/24 12:14:44;;;;;;;17.73;11.15;;;11.30;88.20;;;;;;4974941;28;20045;-79
2021/11/24 12:17:31;;;;;;;18.88;11.68;;;11.30;88.20;;;;;;4975679;28;20139;-78
2021/11/24 12:20:03;;;;;;;18.83;11.43;;;11.40;88.20;;;;;;4975563;28;20050;-79
2021/11/24 12:23:05;;;;;;;18.55;10.90;;;11.30;88.20;;;;;;4964037;28;20492;-80
2021/11/24 12:25:30;;;;;;;19.00;11.73;;;11.30;88.20;;;;;;4967592;28;20035;-76
2021/11/24 12:28:02;;;;;;;17.48;11.07;;;11.30;88.20;;;;;;4970218;28;20481;-77
2021/11/24 12:30:37;;;;;;;17.08;10.65;;;11.30;88.70;;;;;;4969280;28;20643;-77
2021/11/24 12:33:22;;;;;;;18.30;10.93;;;11.40;88.20;;;;;;4974359;28;20098;-76